createdAt,value
2019-04-10T00:01:53.636Z,98.60
2019-04-10T00:04:23.049Z,98.50
2019-04-10T00:06:52.215Z,98.50
2019-04-10T00:09:21.049Z,98.50
2019-04-10T00:11:49.989Z,98.50
2019-04-10T00:14:18.601Z,98.50
2019-04-10T00:16:47.269Z,98.50
2019-04-10T00:19:15.751Z,98.50
2019-04-10T00:21:45.159Z,98.50
2019-04-10T00:24:13.842Z,98.50
2019-04-10T00:26:42.316Z,98.60
2019-04-10T00:29:10.753Z,98.60
2019-04-10T00:31:40.210Z,98.70
2019-04-10T00:34:09.441Z,98.90
2019-04-10T00:36:38.202Z,98.80
2019-04-10T00:39:08.626Z,98.80
2019-04-10T00:41:38.386Z,98.80
2019-04-10T00:44:07.821Z,98.80
2019-04-10T00:46:36.756Z,98.70
2019-04-10T00:49:05.232Z,98.60
2019-04-10T00:51:33.725Z,98.60
2019-04-10T00:54:02.229Z,98.60
2019-04-10T00:56:30.689Z,98.60
2019-04-10T00:58:59.739Z,98.50
2019-04-10T01:01:28.196Z,98.60
2019-04-10T01:03:56.670Z,98.60
2019-04-10T01:06:26.181Z,98.60
2019-04-10T01:08:55.213Z,98.60
2019-04-10T01:11:23.703Z,98.60
2019-04-10T01:13:53.617Z,98.40
2019-04-10T01:16:23.100Z,98.20
2019-04-10T01:18:51.676Z,98.00
2019-04-10T01:21:20.192Z,97.70
2019-04-10T01:23:49.107Z,97.50
2019-04-10T01:26:17.704Z,97.30
2019-04-10T01:28:47.102Z,97.10
2019-04-10T01:31:17.072Z,96.70
2019-04-10T01:33:46.428Z,96.60
2019-04-10T01:36:15.976Z,96.60
2019-04-10T01:38:44.547Z,96.30
2019-04-10T01:41:13.044Z,96.30
2019-04-10T01:43:41.471Z,96.20
2019-04-10T01:46:10.311Z,96.10
2019-04-10T01:48:39.728Z,96.00
2019-04-10T01:51:08.715Z,95.80
2019-04-10T01:53:37.688Z,95.60
2019-04-10T01:56:20.452Z,95.50
2019-04-10T01:58:37.654Z,95.40
2019-04-10T02:01:08.101Z,95.20
2019-04-10T02:03:40.378Z,95.20
2019-04-10T02:06:09.222Z,95.00
2019-04-10T02:08:38.236Z,95.00
2019-04-10T02:11:07.270Z,94.90
2019-04-10T02:13:36.083Z,94.80
2019-04-10T02:16:04.758Z,94.70
2019-04-10T02:18:33.257Z,94.50
2019-04-10T02:21:01.695Z,94.40
2019-04-10T02:23:30.239Z,94.30
2019-04-10T02:25:58.785Z,94.10
2019-04-10T02:28:27.255Z,94.10
2019-04-10T02:30:56.685Z,94.10
2019-04-10T02:33:25.517Z,94.20
2019-04-10T02:35:56.993Z,94.00
2019-04-10T02:38:40.092Z,93.90
2019-04-10T02:40:57.390Z,93.70
2019-04-10T02:43:27.287Z,93.60
2019-04-10T02:45:56.312Z,93.60
2019-04-10T02:48:27.479Z,93.80
2019-04-10T02:50:57.594Z,94.00
2019-04-10T02:53:27.628Z,94.00
2019-04-10T02:55:58.154Z,94.00
2019-04-10T02:58:26.977Z,93.90
2019-04-10T03:00:56.306Z,93.90
2019-04-10T03:03:25.490Z,94.00
2019-04-10T03:05:54.369Z,93.90
2019-04-10T03:08:37.123Z,93.70
2019-04-10T03:10:59.068Z,93.70
2019-04-10T03:13:23.920Z,93.70
2019-04-10T03:15:53.564Z,93.70
2019-04-10T03:18:22.998Z,93.70
2019-04-10T03:20:51.624Z,93.60
2019-04-10T03:23:21.058Z,93.60
2019-04-10T03:25:50.911Z,93.60
2019-04-10T03:28:19.555Z,93.60
2019-04-10T03:30:49.315Z,93.60
2019-04-10T03:33:31.093Z,93.70
2019-04-10T03:35:59.055Z,93.80
2019-04-10T03:38:27.495Z,93.90
2019-04-10T03:40:55.952Z,93.70
2019-04-10T03:43:24.438Z,93.70
2019-04-10T03:45:53.005Z,93.80
2019-04-10T03:48:21.482Z,93.90
2019-04-10T03:50:50.198Z,93.90
2019-04-10T03:53:20.164Z,93.90
2019-04-10T03:55:49.415Z,93.90
2019-04-10T03:58:19.679Z,94.00
2019-04-10T04:00:48.518Z,94.00
2019-04-10T04:03:18.292Z,94.10
2019-04-10T04:05:47.091Z,94.10
2019-04-10T04:08:15.539Z,94.30
2019-04-10T04:10:44.705Z,94.30
2019-04-10T04:13:13.410Z,94.30
2019-04-10T04:15:42.158Z,94.40
2019-04-10T04:18:10.976Z,94.50
2019-04-10T04:20:39.974Z,94.70
2019-04-10T04:23:09.310Z,94.80
2019-04-10T04:25:38.677Z,94.90
2019-04-10T04:28:07.182Z,94.90
2019-04-10T04:30:36.040Z,95.00
2019-04-10T04:33:04.853Z,95.10
2019-04-10T04:35:33.313Z,95.20
2019-04-10T04:38:02.549Z,95.30
2019-04-10T04:40:31.194Z,95.40
2019-04-10T04:43:00.149Z,95.50
2019-04-10T04:45:28.693Z,95.70
2019-04-10T04:47:57.626Z,95.80
2019-04-10T04:50:27.062Z,95.80
2019-04-10T04:52:55.683Z,96.00
2019-04-10T04:55:24.124Z,96.00
2019-04-10T04:57:53.479Z,96.10
2019-04-10T05:00:22.143Z,96.10
2019-04-10T05:02:55.722Z,96.10
2019-04-10T05:05:25.237Z,96.10
2019-04-10T05:07:59.327Z,96.20
2019-04-10T05:10:25.129Z,96.40
2019-04-10T05:12:54.047Z,96.50
2019-04-10T05:15:22.679Z,96.60
2019-04-10T05:17:51.802Z,96.60
2019-04-10T05:20:20.285Z,96.70
2019-04-10T05:22:49.214Z,96.60
2019-04-10T05:25:19.042Z,96.70
2019-04-10T05:27:49.022Z,96.80
2019-04-10T05:30:18.387Z,96.90
2019-04-10T05:32:47.316Z,96.90
2019-04-10T05:35:16.995Z,97.00
2019-04-10T05:37:46.293Z,97.10
2019-04-10T05:40:15.259Z,97.20
2019-04-10T05:42:44.971Z,97.30
2019-04-10T05:45:14.846Z,97.30
2019-04-10T05:47:44.455Z,97.40
2019-04-10T05:50:13.090Z,97.40
2019-04-10T05:52:41.532Z,97.40
2019-04-10T05:55:10.314Z,97.40
2019-04-10T05:57:38.908Z,97.50
2019-04-10T06:00:10.411Z,97.50
2019-04-10T06:02:39.821Z,97.40
2019-04-10T06:05:09.763Z,97.10
2019-04-10T06:07:38.307Z,97.00
2019-04-10T06:10:10.553Z,97.00
2019-04-10T06:12:39.552Z,97.00
2019-04-10T06:15:08.815Z,97.00
2019-04-10T06:17:38.468Z,96.80
2019-04-10T06:20:09.178Z,96.50
2019-04-10T06:22:38.868Z,96.20
2019-04-10T06:25:11.109Z,96.00
2019-04-10T06:27:40.819Z,96.00
2019-04-10T06:30:10.070Z,95.30
2019-04-10T06:32:39.644Z,95.10
2019-04-10T06:35:09.186Z,94.90
2019-04-10T06:37:38.108Z,94.80
2019-04-10T06:40:16.425Z,94.90
2019-04-10T06:42:46.172Z,94.40
2019-04-10T06:45:09.690Z,94.30
2019-04-10T06:47:39.903Z,94.10
2019-04-10T06:50:10.570Z,93.30
2019-04-10T06:52:39.278Z,92.70
2019-04-10T06:55:09.191Z,92.30
2019-04-10T06:57:46.872Z,92.10
2019-04-10T07:00:13.718Z,91.90
2019-04-10T07:02:41.093Z,91.60
2019-04-10T07:05:12.408Z,91.60
2019-04-10T07:07:50.915Z,91.20
2019-04-10T07:10:22.530Z,90.70
2019-04-10T07:12:42.074Z,90.10
2019-04-10T07:15:12.463Z,90.00
2019-04-10T07:17:41.867Z,90.10
2019-04-10T07:20:15.018Z,89.40
2019-04-10T07:22:46.536Z,89.50
2019-04-10T07:25:14.290Z,88.60
2019-04-10T07:27:44.071Z,88.70
2019-04-10T07:30:13.994Z,88.30
2019-04-10T07:32:47.173Z,87.70
2019-04-10T07:35:19.268Z,87.10
2019-04-10T07:37:44.817Z,87.30
2019-04-10T07:40:14.354Z,87.60
2019-04-10T07:42:43.383Z,87.30
2019-04-10T07:45:13.004Z,87.20
2019-04-10T07:47:42.020Z,86.60
2019-04-10T07:50:12.195Z,85.50
2019-04-10T07:52:41.415Z,84.80
2019-04-10T07:55:10.847Z,84.80
2019-04-10T07:57:40.503Z,85.10
2019-04-10T08:00:11.310Z,84.60
2019-04-10T08:02:40.576Z,84.40
2019-04-10T08:05:10.211Z,84.50
2019-04-10T08:07:39.305Z,84.30
2019-04-10T08:10:10.116Z,84.40
2019-04-10T08:12:45.992Z,84.40
2019-04-10T08:15:09.424Z,83.10
2019-04-10T08:17:38.870Z,83.00
2019-04-10T08:20:09.899Z,82.70
2019-04-10T08:22:39.341Z,81.30
2019-04-10T08:25:08.965Z,81.40
2019-04-10T08:27:38.465Z,81.00
2019-04-10T08:30:10.779Z,80.50
2019-04-10T08:32:50.829Z,80.10
2019-04-10T08:35:09.199Z,80.80
2019-04-10T08:37:38.925Z,80.80
2019-04-10T08:40:11.420Z,80.30
2019-04-10T08:42:43.438Z,81.00
2019-04-10T08:45:11.344Z,79.90
2019-04-10T08:47:40.168Z,80.60
2019-04-10T08:50:09.763Z,80.50
2019-04-10T08:52:39.084Z,80.30
2019-04-10T08:55:10.005Z,80.30
2019-04-10T08:57:38.842Z,79.80
2019-04-10T09:00:10.062Z,80.60
2019-04-10T09:02:38.786Z,80.00
2019-04-10T09:05:09.252Z,80.20
2019-04-10T09:07:38.283Z,80.00
2019-04-10T09:10:07.302Z,78.50
2019-04-10T09:12:35.760Z,78.40
2019-04-10T09:15:05.957Z,77.10
2019-04-10T09:17:35.430Z,77.30
2019-04-10T09:20:06.642Z,77.60
2019-04-10T09:22:55.162Z,77.10
2019-04-10T09:25:07.032Z,77.30
2019-04-10T09:27:35.940Z,76.60
2019-04-10T09:30:07.239Z,76.20
2019-04-10T09:32:36.790Z,74.90
2019-04-10T09:35:08.730Z,77.00
2019-04-10T09:37:37.959Z,77.20
2019-04-10T09:40:08.465Z,77.00
2019-04-10T09:42:36.916Z,76.50
2019-04-10T09:45:06.427Z,76.50
2019-04-10T09:47:34.918Z,77.20
2019-04-10T09:50:04.193Z,76.30
2019-04-10T09:52:32.647Z,76.30
2019-04-10T09:55:01.114Z,76.00
2019-04-10T09:57:29.904Z,76.60
2019-04-10T09:59:58.354Z,76.30
2019-04-10T10:02:27.456Z,75.50
2019-04-10T10:04:56.426Z,75.60
2019-04-10T10:07:24.856Z,75.90
2019-04-10T10:09:53.324Z,75.70
2019-04-10T10:12:21.767Z,74.10
2019-04-10T10:14:50.249Z,74.30
2019-04-10T10:17:18.704Z,74.00
2019-04-10T10:19:48.070Z,72.40
2019-04-10T10:22:16.906Z,72.00
2019-04-10T10:24:46.808Z,71.50
2019-04-10T10:27:15.684Z,68.70
2019-04-10T10:29:44.395Z,70.70
2019-04-10T10:32:12.928Z,70.20
2019-04-10T10:34:41.375Z,70.60
2019-04-10T10:37:10.752Z,70.50
2019-04-10T10:39:39.232Z,71.20
2019-04-10T10:42:07.826Z,72.00
2019-04-10T10:44:36.320Z,70.10
2019-04-10T10:47:06.201Z,71.30
2019-04-10T10:49:34.847Z,72.10
2019-04-10T10:52:12.315Z,72.10
2019-04-10T10:54:41.146Z,71.10
2019-04-10T10:57:10.934Z,71.00
2019-04-10T10:59:39.836Z,70.10
2019-04-10T11:02:08.717Z,71.10
2019-04-10T11:04:37.852Z,71.50
2019-04-10T11:07:06.992Z,71.20
2019-04-10T11:09:36.765Z,69.90
2019-04-10T11:12:16.491Z,69.90
2019-04-10T11:14:45.584Z,70.20
2019-04-10T11:17:14.242Z,70.50
2019-04-10T11:19:43.420Z,71.20
2019-04-10T11:22:14.419Z,72.40
2019-04-10T11:24:44.493Z,72.50
2019-04-10T11:27:14.315Z,71.70
2019-04-10T11:29:45.270Z,72.00
2019-04-10T11:32:16.344Z,72.80
2019-04-10T11:34:56.650Z,72.60
2019-04-10T11:39:56.576Z,72.20
2019-04-10T11:42:26.415Z,72.60
2019-04-10T11:44:55.502Z,72.00
2019-04-10T11:47:25.240Z,72.10
2019-04-10T11:49:57.186Z,72.40
2019-04-10T11:52:33.754Z,72.60
2019-04-10T11:55:05.106Z,71.70
2019-04-10T11:57:26.426Z,72.10
2019-04-10T11:59:56.944Z,71.40
2019-04-10T12:02:28.186Z,70.80
2019-04-10T12:07:58.477Z,69.40
2019-04-10T12:12:28.047Z,69.10
2019-04-10T12:14:57.892Z,69.20
2019-04-10T12:17:27.612Z,69.80
2019-04-10T12:20:09.625Z,69.90
2019-04-10T12:22:48.080Z,69.50
2019-04-10T12:25:16.858Z,68.10
2019-04-10T12:27:45.398Z,67.20
2019-04-10T12:30:15.182Z,67.10
2019-04-10T12:32:45.897Z,66.80
2019-04-10T12:35:15.044Z,66.70
2019-04-10T12:37:59.400Z,64.90
2019-04-10T12:40:21.534Z,64.80
2019-04-10T12:42:50.412Z,63.80
2019-04-10T12:45:20.031Z,62.90
2019-04-10T12:47:48.583Z,61.40
2019-04-10T12:50:17.064Z,62.70
2019-04-10T12:52:45.528Z,60.50
2019-04-10T12:55:14.477Z,61.00
2019-04-10T12:57:43.505Z,59.30
2019-04-10T13:00:16.000Z,60.20
2019-04-10T13:02:44.868Z,60.70
2019-04-10T13:05:13.836Z,61.10
2019-04-10T13:07:43.481Z,58.20
2019-04-10T13:10:12.832Z,59.80
2019-04-10T13:12:41.770Z,59.00
2019-04-10T13:15:11.583Z,60.10
2019-04-10T13:17:40.734Z,60.30
2019-04-10T13:20:11.661Z,59.00
2019-04-10T13:22:40.265Z,55.20
2019-04-10T13:25:09.940Z,56.20
2019-04-10T13:27:39.483Z,56.10
2019-04-10T13:30:12.914Z,55.10
2019-04-10T13:32:42.438Z,55.00
2019-04-10T13:35:11.453Z,53.60
2019-04-10T13:37:41.299Z,56.00
2019-04-10T13:40:11.247Z,55.00
2019-04-10T13:42:41.068Z,54.30
2019-04-10T13:45:11.062Z,54.00
2019-04-10T13:47:40.778Z,54.80
2019-04-10T13:50:10.653Z,55.30
2019-04-10T13:52:40.931Z,54.30
2019-04-10T13:55:18.948Z,55.00
2019-04-10T13:57:47.721Z,55.80
2019-04-10T14:00:39.850Z,56.60
2019-04-10T14:03:06.923Z,56.10
2019-04-10T14:05:35.470Z,57.80
2019-04-10T14:08:04.868Z,56.40
2019-04-10T14:10:35.190Z,57.90
2019-04-10T14:13:03.805Z,59.60
2019-04-10T14:15:33.721Z,57.90
2019-04-10T14:18:02.426Z,58.80
2019-04-10T14:20:31.248Z,56.10
2019-04-10T14:23:16.751Z,56.70
2019-04-10T14:26:02.270Z,57.70
2019-04-10T14:28:33.343Z,56.20
2019-04-10T14:31:04.208Z,56.00
2019-04-10T14:33:33.075Z,53.60
2019-04-10T14:36:01.973Z,53.20
2019-04-10T14:38:30.774Z,53.20
2019-04-10T14:40:59.531Z,51.80
2019-04-10T14:43:28.443Z,52.00
2019-04-10T14:45:57.647Z,50.40
2019-04-10T14:48:26.229Z,51.00
2019-04-10T14:50:54.729Z,49.50
2019-04-10T14:53:23.266Z,50.20
2019-04-10T14:55:51.737Z,50.50
2019-04-10T14:58:25.178Z,50.20
2019-04-10T15:00:50.976Z,50.30
2019-04-10T15:03:22.362Z,49.80
2019-04-10T15:05:53.955Z,50.30
2019-04-10T15:08:21.775Z,49.60
2019-04-10T15:10:50.590Z,50.10
2019-04-10T15:13:21.257Z,51.80
2019-04-10T15:15:50.289Z,51.60
2019-04-10T15:18:19.109Z,53.60
2019-04-10T15:20:47.729Z,51.50
2019-04-10T15:23:16.182Z,50.60
2019-04-10T15:25:44.636Z,51.50
2019-04-10T15:28:13.968Z,51.90
2019-04-10T15:30:42.806Z,51.40
2019-04-10T15:33:12.137Z,51.60
2019-04-10T15:35:41.811Z,51.50
2019-04-10T15:38:11.617Z,53.10
2019-04-10T15:40:42.009Z,53.60
2019-04-10T15:43:10.816Z,54.90
2019-04-10T15:45:39.966Z,55.70
2019-04-10T15:48:08.772Z,56.80
2019-04-10T15:50:37.255Z,55.60
2019-04-10T15:53:06.170Z,56.70
2019-04-10T15:55:34.728Z,57.30
2019-04-10T15:58:04.057Z,59.00
2019-04-10T16:00:34.976Z,59.40
2019-04-10T16:03:04.874Z,60.30
2019-04-10T16:05:33.485Z,61.00
2019-04-10T16:08:02.990Z,59.90
2019-04-10T16:10:33.946Z,60.60
2019-04-10T16:13:16.515Z,62.10
2019-04-10T16:15:45.207Z,62.00
2019-04-10T16:18:15.638Z,62.50
2019-04-10T16:20:45.883Z,62.50
2019-04-10T16:23:18.944Z,62.90
2019-04-10T16:25:54.459Z,63.70
2019-04-10T16:28:23.350Z,64.30
2019-04-10T16:30:51.817Z,64.30
2019-04-10T16:33:20.288Z,64.60
2019-04-10T16:35:48.790Z,65.30
2019-04-10T16:38:17.348Z,65.10
2019-04-10T16:40:45.992Z,65.70
2019-04-10T16:43:15.903Z,66.20
2019-04-10T16:45:44.465Z,66.30
2019-04-10T16:48:13.462Z,66.40
2019-04-10T16:50:41.925Z,66.80
2019-04-10T16:53:11.636Z,66.80
2019-04-10T16:55:41.027Z,67.10
2019-04-10T16:58:09.794Z,67.40
2019-04-10T17:00:39.598Z,66.90
2019-04-10T17:03:09.326Z,67.60
2019-04-10T17:05:39.660Z,68.30
2019-04-10T17:08:09.562Z,68.60
2019-04-10T17:10:38.707Z,69.30
2019-04-10T17:13:08.835Z,69.40
2019-04-10T17:15:37.566Z,69.20
2019-04-10T17:18:06.644Z,69.60
2019-04-10T17:20:36.215Z,70.20
2019-04-10T17:23:06.413Z,70.80
2019-04-10T17:25:35.938Z,70.20
2019-04-10T17:28:04.503Z,70.20
2019-04-10T17:30:33.853Z,70.90
2019-04-10T17:33:13.168Z,70.90
2019-04-10T17:35:43.355Z,71.10
2019-04-10T17:38:12.146Z,71.20
2019-04-10T17:40:48.226Z,71.20
2019-04-10T17:43:11.113Z,71.20
2019-04-10T17:45:39.601Z,71.30
2019-04-10T17:48:09.389Z,71.60
2019-04-10T17:50:39.358Z,71.90
2019-04-10T17:53:15.221Z,71.90
2019-04-10T17:55:44.689Z,72.50
2019-04-10T17:58:13.653Z,72.50
2019-04-10T18:01:25.036Z,72.80
2019-04-10T18:03:57.178Z,73.40
2019-04-10T18:06:27.681Z,73.40
2019-04-10T18:08:57.046Z,73.70
2019-04-10T18:11:25.596Z,73.90
2019-04-10T18:13:55.351Z,73.90
2019-04-10T18:16:23.817Z,73.80
2019-04-10T18:18:52.233Z,74.30
2019-04-10T18:21:20.659Z,73.80
2019-04-10T18:23:49.537Z,73.60
2019-04-10T18:26:28.586Z,73.80
2019-04-10T18:28:59.454Z,73.80
2019-04-10T18:31:29.470Z,74.50
2019-04-10T18:33:58.706Z,74.60
2019-04-10T18:36:27.916Z,74.60
2019-04-10T18:38:56.332Z,74.50
2019-04-10T18:41:24.763Z,75.00
2019-04-10T18:43:53.174Z,75.20
2019-04-10T18:46:22.427Z,75.10
2019-04-10T18:48:51.386Z,75.10
2019-04-10T18:51:19.949Z,75.20
2019-04-10T18:53:51.158Z,75.10
2019-04-10T18:56:20.805Z,75.10
2019-04-10T18:58:54.970Z,75.50
2019-04-10T19:01:31.417Z,76.20
2019-04-10T19:04:04.536Z,76.70
2019-04-10T19:06:49.713Z,76.70
2019-04-10T19:09:24.569Z,76.70
2019-04-10T19:11:54.800Z,76.90
2019-04-10T19:14:24.663Z,77.20
2019-04-10T19:16:55.150Z,77.00
2019-04-10T19:19:28.291Z,77.00
2019-04-10T19:22:00.056Z,77.30
2019-04-10T19:24:32.396Z,78.00
2019-04-10T19:27:02.135Z,78.40
2019-04-10T19:29:35.717Z,78.80
2019-04-10T19:32:06.269Z,78.80
2019-04-10T19:34:45.819Z,78.60
2019-04-10T19:37:14.603Z,78.60
2019-04-10T19:39:44.798Z,78.80
2019-04-10T19:42:15.339Z,79.20
2019-04-10T19:44:45.578Z,79.30
2019-04-10T19:47:14.765Z,79.50
2019-04-10T19:49:44.556Z,79.80
2019-04-10T19:52:14.311Z,79.80
2019-04-10T19:54:44.250Z,80.10
2019-04-10T19:57:15.334Z,80.60
2019-04-10T19:59:46.041Z,80.90
2019-04-10T20:02:19.056Z,81.20
2019-04-10T20:04:48.614Z,81.40
2019-04-10T20:07:17.297Z,81.30
2019-04-10T20:09:46.441Z,81.70
2019-04-10T20:12:16.063Z,82.30
2019-04-10T20:14:44.803Z,83.20
2019-04-10T20:17:13.558Z,83.60
2019-04-10T20:19:42.590Z,83.70
2019-04-10T20:22:11.206Z,83.60
2019-04-10T20:24:39.617Z,83.60
2019-04-10T20:27:09.921Z,83.60
2019-04-10T20:29:39.331Z,83.60
2019-04-10T20:32:07.965Z,83.80
2019-04-10T20:34:37.783Z,84.60
2019-04-10T20:37:09.593Z,84.50
2019-04-10T20:39:39.252Z,84.80
2019-04-10T20:42:07.822Z,85.40
2019-04-10T20:44:36.636Z,85.30
2019-04-10T20:47:05.104Z,85.60
2019-04-10T20:49:34.251Z,85.70
2019-04-10T20:52:04.142Z,85.90
2019-04-10T20:54:42.724Z,86.50
2019-04-10T20:57:11.157Z,86.50
2019-04-10T20:59:40.437Z,86.70
2019-04-10T21:02:09.722Z,86.80
2019-04-10T21:04:39.536Z,87.20
2019-04-10T21:07:08.449Z,87.10
2019-04-10T21:09:36.897Z,87.20
2019-04-10T21:12:10.473Z,87.40
2019-04-10T21:14:35.926Z,87.60
2019-04-10T21:17:04.824Z,87.70
2019-04-10T21:19:33.499Z,87.70
2019-04-10T21:22:02.069Z,88.00
2019-04-10T21:24:31.474Z,88.10
2019-04-10T21:27:01.219Z,88.20
2019-04-10T21:29:32.024Z,88.30
2019-04-10T21:32:05.188Z,88.80
2019-04-10T21:34:36.919Z,88.90
2019-04-10T21:37:06.097Z,88.90
2019-04-10T21:39:35.974Z,88.80
2019-04-10T21:42:14.823Z,88.50
2019-04-10T21:44:35.136Z,88.70
2019-04-10T21:47:03.893Z,88.80
2019-04-10T21:49:32.416Z,88.70
2019-04-10T21:52:02.077Z,88.80
2019-04-10T21:54:31.374Z,88.90
2019-04-10T21:56:59.912Z,89.10
2019-04-10T21:59:28.993Z,88.90
2019-04-10T22:01:57.581Z,88.90
2019-04-10T22:04:27.270Z,89.30
2019-04-10T22:07:10.024Z,89.50
2019-04-10T22:09:43.257Z,89.80
2019-04-10T22:12:24.014Z,90.00
2019-04-10T22:14:43.913Z,90.00
2019-04-10T22:17:13.131Z,90.10
2019-04-10T22:19:43.000Z,90.20
2019-04-10T22:22:12.803Z,90.40
2019-04-10T22:24:42.653Z,90.50
2019-04-10T22:27:11.968Z,90.70
2019-04-10T22:29:40.454Z,90.70
2019-04-10T22:32:08.998Z,90.40
2019-04-10T22:34:38.401Z,89.90
2019-04-10T22:37:07.264Z,89.20
2019-04-10T22:39:35.924Z,88.50
2019-04-10T22:42:05.359Z,87.90
2019-04-10T22:44:40.219Z,86.90
2019-04-10T22:47:05.097Z,86.20
2019-04-10T22:49:34.874Z,85.10
2019-04-10T22:52:04.614Z,84.80
2019-04-10T22:54:33.200Z,84.30
2019-04-10T22:57:02.607Z,83.90
2019-04-10T22:59:32.446Z,83.10
2019-04-10T23:02:07.390Z,82.70
2019-04-10T23:04:32.573Z,82.40
2019-04-10T23:07:01.760Z,82.10
2019-04-10T23:09:30.590Z,81.40
2019-04-10T23:12:00.195Z,81.00
2019-04-10T23:14:29.018Z,80.60
2019-04-10T23:16:57.742Z,80.30
2019-04-10T23:19:26.227Z,79.80
2019-04-10T23:21:54.701Z,79.90
2019-04-10T23:24:23.519Z,79.40
2019-04-10T23:26:51.939Z,78.80
2019-04-10T23:29:20.386Z,79.20
2019-04-10T23:31:49.792Z,79.20
2019-04-10T23:34:18.880Z,78.90
2019-04-10T23:36:48.636Z,79.20
2019-04-10T23:39:18.260Z,79.10
2019-04-10T23:41:47.649Z,78.50
2019-04-10T23:44:16.844Z,78.30
2019-04-10T23:46:45.465Z,78.60
2019-04-10T23:49:14.130Z,78.70
2019-04-10T23:51:43.283Z,78.70
2019-04-10T23:54:13.149Z,78.00
2019-04-10T23:56:41.978Z,78.20
2019-04-10T23:59:10.733Z,78.10
